Terminal Aerodrome Forecast
Issued by NWS

Home | Current Version | Previous Version | Text Only | Print | Product List | Glossary On
Versions: 1 2 3 4 5 6 7 8 9 10 11 12 13 14 15 16 17 18 19 20
000
FTUS43 KDLH 230526
TAFBRD
TAF
KBRD 230526Z 2306/2406 32005KT P6SM SCT050
     FM231200 31005KT 6SM BR SCT015 BKN025
      TEMPO 2313/2316 BKN015
     FM231700 35009KT P6SM BKN040
     FM232300 04007KT P6SM SCT050
     FM240300 VRB03KT P6SM FEW050=

USA.gov is the U.S. government's official web portal to all federal, state and local government web resources and services.